• Join FlightAware (Why Join?)
  • Login
  • US Flag 
06:52AM EDT


 

Airport Tracker/Info


-or-


 

Live Flight TrackerFlight Track Log ✈ ACA445 ✈ 02-May-2012 ✈ CYOW - CYYZ

Flight Track Log - Related Links

Times and Time Zones

All times are in EDT time to prevent confusion due to time zone crossing. See the ACA445 flight status page for this flight to view local times or setup timezone preferences in your user account.

Time Position Orientation Groundspeed Altitude Reporting Facility
EDT Latitude Longitude Course Direction KTS MPH feet Rate Location/Type
09:09AM 45.3118 -75.6969 86° East  Level FlightAware Approximate
09:09AM 45.3167 -75.6000 65° Northeast 60 69 1,300  Level Toronto Center
09:10AM 45.3333 -75.5500 305° West 150 173 3,900 2,160 Climbing Toronto Center
09:11AM 45.3667 -75.6167 240° Southwest 180 207 4,900 2,040 Climbing Montreal Center
09:12AM 45.3333 -75.7000 260° West 260 299 7,300 2,820 Climbing Montreal Center
09:13AM 45.3167 -75.8333 248° West 280 322 10,600 2,340 Climbing Montreal Center
09:14AM 45.2833 -75.9500 260° West 340 391 12,000 2,160 Climbing Montreal Center
09:15AM 45.2667 -76.0833 253° West 380 437 15,000 2,700 Climbing Montreal Center
09:16AM 45.2333 -76.2333 251° West 380 437 17,500 2,280 Climbing Montreal Center
09:17AM 45.2000 -76.3667 245° Southwest 400 460 19,600 2,160 Climbing Montreal Center
09:18AM 45.1500 -76.5167 247° West 410 472 21,900 2,040 Climbing Montreal Center
09:19AM 45.1000 -76.6833 251° West 420 483 23,700 1,740 Climbing Montreal Center
09:20AM 45.0667 -76.8167 247° West 430 495 25,400 1,800 Climbing Montreal Center
09:21AM 45.0167 -76.9833 247° West 440 506 27,300 1,260 Climbing Montreal Center
09:22AM 44.9667 -77.1500 247° West 430 495 28,000 300 Climbing Montreal Center
09:23AM 44.9167 -77.3167 242° Southwest 430 495 28,000  Level Montreal Center
09:24AM 44.8667 -77.4500 247° West 440 506 28,000  Level Montreal Center
09:25AM 44.8167 -77.6167 247° West 430 495 28,000  Level Montreal Center
09:26AM 44.7667 -77.7833 242° Southwest 430 495 28,000  Level Montreal Center
09:27AM 44.7167 -77.9167 238° Southwest 440 506 28,000  Level Montreal Center
09:28AM 44.6500 -78.0667 245° Southwest 440 506 28,000  Level Montreal Center
09:29AM 44.6000 -78.2167 238° Southwest 440 506 28,000  Level Montreal Center
09:30AM 44.5333 -78.3667 238° Southwest 440 506 28,000 -120 Level Montreal Center
09:31AM 44.4667 -78.5167 238° Southwest 440 506 27,800 -780 Descending Montreal Center
09:32AM 44.4000 -78.6667 245° Southwest 440 506 26,500 -2,100 Descending Montreal Center
09:33AM 44.3500 -78.8167 239° Southwest 420 483 23,700 -2,700 Descending Montreal Center
09:34AM 44.3000 -78.9333 242° Southwest 410 472 21,100 -2,580 Descending Montreal Center
09:35AM 44.2500 -79.0667 216° Southwest 390 449 18,600 -1,740 Descending Montreal Center
09:36AM 44.1500 -79.1667 200° South 390 449 17,700 -1,200 Descending Montreal Center
09:37AM 44.0500 -79.2167 227° Southwest 330 380 15,900 -1,500 Descending Toronto Center
09:38AM 43.9833 -79.3167 200° South 310 357 14,300 -1,500 Descending Toronto Center
09:39AM 43.9167 -79.3500 216° Southwest 300 345 12,900 -1,500 Descending Toronto Center
09:40AM 43.8500 -79.4167 245° Southwest 290 334 11,400 -1,500 Descending Toronto Center
09:41AM 43.8167 -79.5167 245° Southwest 280 322 10,000 -1,440 Descending Toronto Center
09:42AM 43.7833 -79.6167 230° Southwest 270 311 8,600 -1,260 Descending Toronto Center
09:43AM 43.7333 -79.7000 235° Southwest 260 299 7,500 -1,800 Descending Toronto Center
09:44AM 43.7000 -79.7667 224° Southwest 240 276 5,000 -2,220 Descending Toronto Center
09:45AM 43.6500 -79.8333 206° Southwest 250 288 3,100 -1,020 Descending Toronto Center
09:46AM 43.6000 -79.8667 144° Southeast 230 265 3,000 -60 Descending Toronto Center
09:47AM 43.5500 -79.8167 47° Northeast 210 242 3,000 -60 Level Toronto Center
09:48AM 43.5833 -79.7667 47° Northeast 210 242 2,900 -120 Descending Toronto Center